createdAt,value
2023-03-11T00:00:02.388Z,5.70
2023-03-11T00:02:34.653Z,5.88
2023-03-11T00:05:09.836Z,5.47
2023-03-11T00:07:42.201Z,5.38
2023-03-11T00:10:24.514Z,4.80
2023-03-11T00:12:59.365Z,5.20
2023-03-11T00:15:32.109Z,4.93
2023-03-11T00:18:05.232Z,5.00
2023-03-11T00:20:40.971Z,5.43
2023-03-11T00:26:19.857Z,6.22
2023-03-11T00:28:53.033Z,5.60
2023-03-11T00:31:26.685Z,6.00
2023-03-11T00:34:24.235Z,6.47
2023-03-11T00:36:56.278Z,6.75
2023-03-11T00:39:28.391Z,6.78
2023-03-11T00:42:00.726Z,6.38
2023-03-11T00:44:32.802Z,6.60
2023-03-11T00:47:05.022Z,7.40
2023-03-11T00:49:37.172Z,7.82
2023-03-11T00:52:09.269Z,7.75
2023-03-11T00:54:41.887Z,6.88
2023-03-11T00:57:14.211Z,6.82
2023-03-11T00:59:46.276Z,6.80
2023-03-11T01:02:18.378Z,5.68
2023-03-11T01:04:56.049Z,6.60
2023-03-11T01:07:28.063Z,4.63
2023-03-11T01:10:00.748Z,4.68
2023-03-11T01:15:07.997Z,5.30
2023-03-11T01:17:43.213Z,5.10
2023-03-11T01:20:16.075Z,5.18
2023-03-11T01:22:48.166Z,4.07
2023-03-11T01:25:23.555Z,4.53
2023-03-11T01:28:02.010Z,3.85
2023-03-11T01:30:35.321Z,4.22
2023-03-11T01:33:22.678Z,5.10
2023-03-11T01:35:55.099Z,4.25
2023-03-11T01:38:31.689Z,4.30
2023-03-11T01:41:04.468Z,4.68
2023-03-11T01:43:46.018Z,5.32
2023-03-11T01:46:54.833Z,4.45
2023-03-11T01:49:28.154Z,4.18
2023-03-11T01:52:08.111Z,4.22
2023-03-11T01:54:41.798Z,3.92
2023-03-11T01:57:15.109Z,3.85
2023-03-11T01:59:59.186Z,4.28
2023-03-11T02:03:01.645Z,4.20
2023-03-11T02:05:35.180Z,4.82
2023-03-11T02:08:08.104Z,5.30
2023-03-11T02:10:42.494Z,7.00
2023-03-11T02:13:15.537Z,5.28
2023-03-11T02:16:08.086Z,5.75
2023-03-11T02:18:40.765Z,4.55
2023-03-11T02:21:34.625Z,4.63
2023-03-11T02:24:17.280Z,5.05
2023-03-11T02:27:07.737Z,4.60
2023-03-11T02:29:40.902Z,4.20
2023-03-11T02:32:13.367Z,5.53
2023-03-11T02:34:48.205Z,4.97
2023-03-11T02:37:24.648Z,4.28
2023-03-11T02:40:22.271Z,4.45
2023-03-11T02:43:04.155Z,5.22
2023-03-11T02:45:53.645Z,5.68
2023-03-11T02:48:28.410Z,5.70
2023-03-11T02:51:00.803Z,5.63
2023-03-11T02:53:39.727Z,4.88
2023-03-11T02:56:11.857Z,5.38
2023-03-11T02:58:43.961Z,5.47
2023-03-11T03:01:49.930Z,4.95
2023-03-11T03:06:55.081Z,5.43
2023-03-11T03:09:27.123Z,5.20
2023-03-11T03:13:12.776Z,5.32
2023-03-11T03:15:44.862Z,4.00
2023-03-11T03:18:45.543Z,4.65
2023-03-11T03:21:17.609Z,4.22
2023-03-11T03:23:49.638Z,3.80
2023-03-11T03:27:14.740Z,4.40
2023-03-11T03:29:47.138Z,3.97
2023-03-11T03:32:19.254Z,4.63
2023-03-11T03:34:51.337Z,4.70
2023-03-11T03:37:23.453Z,6.07
2023-03-11T03:39:56.039Z,6.00
2023-03-11T03:42:28.523Z,6.70
2023-03-11T03:45:00.548Z,5.93
2023-03-11T03:47:34.210Z,6.38
2023-03-11T03:50:09.607Z,3.83
2023-03-11T03:52:44.068Z,3.72
2023-03-11T03:55:16.233Z,3.78
2023-03-11T03:57:48.308Z,3.83
2023-03-11T04:00:20.671Z,3.67
2023-03-11T04:02:55.862Z,3.70
2023-03-11T04:05:28.504Z,3.67
2023-03-11T04:11:16.917Z,4.32
2023-03-11T04:13:51.991Z,5.05
2023-03-11T04:16:25.218Z,4.28
2023-03-11T04:19:15.834Z,5.55
2023-03-11T04:21:47.981Z,5.07
2023-03-11T04:24:20.151Z,4.95
2023-03-11T04:30:29.932Z,5.47
2023-03-11T04:33:04.874Z,5.25
2023-03-11T04:35:39.676Z,4.75
2023-03-11T04:41:45.456Z,4.25
2023-03-11T04:44:17.525Z,5.97
2023-03-11T04:46:49.658Z,4.55
2023-03-11T04:49:21.704Z,4.38
2023-03-11T04:53:16.373Z,5.25
2023-03-11T04:55:48.578Z,4.72
2023-03-11T04:58:21.234Z,4.35
2023-03-11T05:00:54.245Z,4.90
2023-03-11T05:03:26.317Z,5.13
2023-03-11T05:06:00.314Z,5.25
2023-03-11T05:08:32.529Z,5.60
2023-03-11T05:11:18.662Z,5.40
2023-03-11T05:13:51.022Z,5.95
2023-03-11T05:16:25.713Z,4.50
2023-03-11T05:18:58.429Z,5.38
2023-03-11T05:25:30.630Z,4.30
2023-03-11T05:28:02.885Z,3.45
2023-03-11T05:30:35.138Z,3.80
2023-03-11T05:33:07.296Z,3.50
2023-03-11T05:36:45.546Z,4.30
2023-03-11T05:39:17.655Z,3.95
2023-03-11T05:41:49.800Z,3.55
2023-03-11T05:44:21.783Z,3.90
2023-03-11T05:46:53.983Z,3.78
2023-03-11T05:49:27.521Z,4.38
2023-03-11T05:52:47.455Z,3.70
2023-03-11T05:55:19.564Z,4.15
2023-03-11T05:57:55.625Z,4.10
2023-03-11T06:00:30.607Z,4.30
2023-03-11T06:03:03.829Z,4.05
2023-03-11T06:05:35.831Z,4.38
2023-03-11T06:08:08.186Z,4.43
2023-03-11T06:10:41.330Z,6.75
2023-03-11T06:13:13.667Z,4.35
2023-03-11T06:15:48.088Z,3.85
2023-03-11T06:18:21.330Z,4.93
2023-03-11T06:21:20.337Z,4.38
2023-03-11T06:23:52.391Z,4.15
2023-03-11T06:26:25.124Z,4.43
2023-03-11T06:28:57.436Z,5.15
2023-03-11T06:32:22.272Z,4.68
2023-03-11T06:34:54.633Z,3.92
2023-03-11T06:37:29.549Z,3.83
2023-03-11T06:40:01.899Z,3.67
2023-03-11T06:42:34.839Z,3.08
2023-03-11T06:45:10.006Z,3.75
2023-03-11T06:47:42.331Z,3.67
2023-03-11T06:50:18.045Z,4.10
2023-03-11T06:52:50.373Z,3.90
2023-03-11T06:56:16.495Z,3.97
2023-03-11T06:58:49.993Z,3.20
2023-03-11T07:05:06.001Z,3.25
2023-03-11T07:07:38.249Z,3.90
2023-03-11T07:10:11.322Z,3.45
2023-03-11T07:12:43.418Z,5.07
2023-03-11T07:15:15.761Z,3.78
2023-03-11T07:18:47.717Z,4.10
2023-03-11T07:21:23.230Z,3.65
2023-03-11T07:24:03.134Z,4.05
2023-03-11T07:26:36.398Z,4.35
2023-03-11T07:29:14.066Z,4.15
2023-03-11T07:31:46.503Z,4.38
2023-03-11T07:34:18.981Z,4.32
2023-03-11T07:36:51.089Z,4.15
2023-03-11T07:39:23.146Z,4.22
2023-03-11T07:41:55.182Z,5.20
2023-03-11T07:44:27.296Z,4.30
2023-03-11T07:47:02.682Z,4.55
2023-03-11T07:49:34.731Z,4.50
2023-03-11T07:52:07.071Z,3.63
2023-03-11T07:54:39.396Z,4.82
2023-03-11T07:57:17.098Z,4.15
2023-03-11T08:01:15.410Z,4.10
2023-03-11T08:03:51.254Z,3.45
2023-03-11T08:06:31.414Z,3.95
2023-03-11T08:09:09.571Z,3.65
2023-03-11T08:11:41.610Z,5.13
2023-03-11T08:14:16.391Z,3.70
2023-03-11T08:16:48.772Z,3.60
2023-03-11T08:19:20.843Z,3.30
2023-03-11T08:21:52.973Z,3.75
2023-03-11T08:24:24.964Z,3.55
2023-03-11T08:26:57.283Z,4.00
2023-03-11T08:29:29.301Z,4.03
2023-03-11T08:32:02.011Z,4.50
2023-03-11T08:34:35.280Z,3.58
2023-03-11T08:37:07.788Z,3.97
2023-03-11T08:39:39.905Z,3.88
2023-03-11T08:42:12.266Z,3.35
2023-03-11T08:44:44.455Z,3.70
2023-03-11T08:47:17.839Z,2.92
2023-03-11T08:49:49.895Z,3.35
2023-03-11T08:52:22.578Z,3.08
2023-03-11T08:54:54.710Z,3.00
2023-03-11T08:57:26.765Z,3.35
2023-03-11T08:59:58.900Z,3.83
2023-03-11T09:02:30.947Z,3.17
2023-03-11T09:05:03.340Z,3.47
2023-03-11T09:07:35.326Z,3.22
2023-03-11T09:10:08.129Z,3.42
2023-03-11T09:15:26.703Z,4.20
2023-03-11T09:17:59.850Z,4.00
2023-03-11T09:20:31.953Z,3.75
2023-03-11T09:23:04.119Z,3.80
2023-03-11T09:25:36.431Z,3.08
2023-03-11T09:28:08.789Z,3.25
2023-03-11T09:30:40.844Z,3.45
2023-03-11T09:33:12.930Z,3.22
2023-03-11T09:35:45.155Z,3.13
2023-03-11T09:38:17.244Z,3.03
2023-03-11T09:41:57.521Z,3.22
2023-03-11T09:48:04.243Z,2.88
2023-03-11T09:50:57.823Z,3.33
2023-03-11T09:53:44.898Z,2.97
2023-03-11T09:56:21.246Z,3.08
2023-03-11T09:59:00.731Z,3.40
2023-03-11T10:01:43.200Z,3.60
2023-03-11T10:04:40.306Z,3.45
2023-03-11T10:07:22.760Z,2.95
2023-03-11T10:09:59.604Z,3.20
2023-03-11T10:12:56.273Z,3.42
2023-03-11T10:15:50.662Z,3.63
2023-03-11T10:18:55.813Z,3.42
2023-03-11T10:22:37.768Z,3.70
2023-03-11T10:25:19.923Z,3.00
2023-03-11T10:28:08.882Z,2.90
2023-03-11T10:34:58.096Z,3.08
2023-03-11T10:37:49.446Z,2.85
2023-03-11T10:44:30.222Z,1.80
2023-03-11T10:47:03.299Z,1.45
2023-03-11T10:50:46.055Z,1.40
2023-03-11T10:53:20.698Z,1.48
2023-03-11T10:56:27.010Z,1.15
2023-03-11T10:59:00.320Z,1.90
2023-03-11T11:01:34.156Z,1.42
2023-03-11T11:04:37.441Z,1.33
2023-03-11T11:07:33.967Z,1.30
2023-03-11T11:10:12.220Z,1.67
2023-03-11T11:13:20.541Z,1.90
2023-03-11T11:16:21.076Z,2.55
2023-03-11T11:19:10.048Z,1.98
2023-03-11T11:21:52.336Z,1.63
2023-03-11T11:24:29.925Z,2.78
2023-03-11T11:27:29.737Z,1.80
2023-03-11T11:33:53.956Z,2.67
2023-03-11T11:36:34.344Z,2.13
2023-03-11T11:39:17.066Z,2.05
2023-03-11T11:41:51.047Z,3.38
2023-03-11T11:44:34.362Z,2.15
2023-03-11T11:47:19.861Z,2.05
2023-03-11T11:50:05.349Z,3.97
2023-03-11T11:52:45.261Z,1.80
2023-03-11T11:55:31.094Z,1.88
2023-03-11T11:58:03.227Z,1.88
2023-03-11T12:01:05.864Z,2.47
2023-03-11T12:03:37.961Z,2.00
2023-03-11T12:07:04.606Z,1.75
2023-03-11T12:09:49.420Z,2.13
2023-03-11T12:12:54.146Z,2.63
2023-03-11T12:15:57.871Z,2.08
2023-03-11T12:18:52.584Z,2.28
2023-03-11T12:21:59.150Z,1.73
2023-03-11T12:25:14.530Z,2.00
2023-03-11T12:28:23.925Z,1.88
2023-03-11T12:31:01.085Z,2.38
2023-03-11T12:33:43.092Z,2.10
2023-03-11T12:36:34.842Z,1.88
2023-03-11T12:39:21.138Z,2.22
2023-03-11T12:42:11.473Z,3.45
2023-03-11T12:47:25.390Z,2.00
2023-03-11T12:50:37.225Z,2.97
2023-03-11T12:53:17.898Z,2.53
2023-03-11T12:56:31.556Z,2.95
2023-03-11T12:59:21.948Z,2.42
2023-03-11T13:02:28.753Z,2.65
2023-03-11T13:05:43.568Z,2.20
2023-03-11T13:08:23.442Z,2.70
2023-03-11T13:11:01.041Z,2.05
2023-03-11T13:13:45.217Z,2.40
2023-03-11T13:16:21.571Z,2.17
2023-03-11T13:18:55.162Z,1.90
2023-03-11T13:21:27.686Z,2.55
2023-03-11T13:24:22.346Z,2.00
2023-03-11T13:27:13.340Z,2.53
2023-03-11T13:30:56.249Z,3.40
2023-03-11T13:33:43.881Z,3.35
2023-03-11T13:40:18.316Z,2.38
2023-03-11T13:43:03.876Z,3.08
2023-03-11T13:45:38.498Z,2.17
2023-03-11T13:56:27.683Z,1.67
2023-03-11T13:59:33.050Z,1.63
2023-03-11T14:02:20.190Z,2.03
2023-03-11T14:05:07.357Z,2.20
2023-03-11T14:07:39.598Z,1.77
2023-03-11T14:10:31.262Z,1.58
2023-03-11T14:13:29.347Z,2.22
2023-03-11T14:16:11.098Z,2.20
2023-03-11T14:18:51.655Z,1.92
2023-03-11T14:21:23.789Z,2.38
2023-03-11T14:23:56.747Z,1.77
2023-03-11T14:26:32.373Z,1.88
2023-03-11T14:29:12.571Z,1.92
2023-03-11T14:31:46.958Z,2.45
2023-03-11T14:34:27.588Z,2.05
2023-03-11T14:37:04.166Z,2.17
2023-03-11T14:39:39.312Z,1.45
2023-03-11T14:42:35.114Z,1.88
2023-03-11T14:45:30.325Z,1.60
2023-03-11T14:48:23.197Z,2.28
2023-03-11T14:50:58.566Z,1.85
2023-03-11T14:53:47.713Z,2.22
2023-03-11T14:56:24.009Z,3.30
2023-03-11T14:59:12.622Z,3.60
2023-03-11T15:01:46.979Z,2.38
2023-03-11T15:04:34.157Z,2.30
2023-03-11T15:07:06.733Z,1.48
2023-03-11T15:09:41.175Z,2.28
2023-03-11T15:13:04.529Z,2.08
2023-03-11T15:15:36.922Z,2.08
2023-03-11T15:18:38.757Z,3.20
2023-03-11T15:21:18.485Z,2.00
2023-03-11T15:23:57.388Z,4.20
2023-03-11T15:26:33.337Z,3.35
2023-03-11T15:29:19.360Z,2.90
2023-03-11T15:31:51.756Z,4.18
2023-03-11T15:34:32.771Z,2.53
2023-03-11T15:37:19.691Z,1.75
2023-03-11T15:39:53.375Z,2.42
2023-03-11T15:42:29.184Z,2.20
2023-03-11T15:45:05.342Z,2.63
2023-03-11T15:47:38.181Z,2.25
2023-03-11T15:52:49.326Z,2.28
2023-03-11T15:55:23.611Z,2.20
2023-03-11T15:58:09.044Z,2.10
2023-03-11T16:00:50.513Z,2.08
2023-03-11T16:03:25.491Z,2.00
2023-03-11T16:05:57.517Z,2.28
2023-03-11T16:08:29.575Z,2.40
2023-03-11T16:11:20.408Z,2.15
2023-03-11T16:13:54.301Z,2.30
2023-03-11T16:16:26.565Z,2.60
2023-03-11T16:19:00.948Z,2.92
2023-03-11T16:21:54.276Z,3.22
2023-03-11T16:24:26.677Z,2.55
2023-03-11T16:26:59.787Z,5.22
2023-03-11T16:29:34.349Z,3.03
2023-03-11T16:32:27.705Z,3.83
2023-03-11T16:37:46.533Z,4.20
2023-03-11T16:40:28.474Z,4.43
2023-03-11T16:43:10.984Z,6.28
2023-03-11T16:45:43.221Z,5.63
2023-03-11T16:48:15.485Z,3.28
2023-03-11T16:50:47.939Z,2.80
2023-03-11T16:53:20.260Z,2.58
2023-03-11T16:55:53.733Z,2.00
2023-03-11T16:58:26.097Z,2.35
2023-03-11T17:00:58.125Z,2.45
2023-03-11T17:03:41.041Z,3.25
2023-03-11T17:06:14.978Z,3.30
2023-03-11T17:08:49.540Z,3.15
2023-03-11T17:11:24.513Z,3.38
2023-03-11T17:14:13.581Z,3.00
2023-03-11T17:16:47.784Z,2.67
2023-03-11T17:19:19.977Z,3.17
2023-03-11T17:21:52.165Z,3.60
2023-03-11T17:24:24.224Z,2.97
2023-03-11T17:27:03.206Z,2.50
2023-03-11T17:29:35.439Z,2.90
2023-03-11T17:32:08.203Z,2.88
2023-03-11T17:34:40.236Z,2.47
2023-03-11T17:37:12.334Z,3.15
2023-03-11T17:39:54.064Z,2.83
2023-03-11T17:42:26.580Z,2.92
2023-03-11T17:44:59.012Z,4.13
2023-03-11T17:47:33.251Z,3.20
2023-03-11T17:50:06.563Z,3.58
2023-03-11T17:52:38.742Z,3.13
2023-03-11T17:55:11.033Z,3.95
2023-03-11T17:57:45.870Z,3.97
2023-03-11T18:00:18.861Z,3.70
2023-03-11T18:02:51.559Z,4.18
2023-03-11T18:05:23.790Z,4.30
2023-03-11T18:07:56.015Z,5.30
2023-03-11T18:10:30.594Z,3.35
2023-03-11T18:13:10.200Z,2.33
2023-03-11T18:15:42.366Z,3.10
2023-03-11T18:18:14.462Z,2.88
2023-03-11T18:20:46.524Z,2.53
2023-03-11T18:23:18.972Z,2.53
2023-03-11T18:28:31.717Z,2.63
2023-03-11T18:31:10.932Z,2.33
2023-03-11T18:33:48.936Z,4.57
2023-03-11T18:36:53.573Z,5.70
2023-03-11T18:39:25.897Z,3.67
2023-03-11T18:42:00.912Z,3.35
2023-03-11T18:44:34.357Z,4.65
2023-03-11T18:47:07.758Z,4.38
2023-03-11T18:49:40.619Z,5.13
2023-03-11T18:52:28.232Z,5.35
2023-03-11T18:55:04.661Z,6.97
2023-03-11T18:57:36.632Z,6.05
2023-03-11T19:00:11.217Z,5.82
2023-03-11T19:02:43.618Z,5.82
2023-03-11T19:05:15.742Z,5.38
2023-03-11T19:07:51.742Z,5.13
2023-03-11T19:10:23.971Z,5.95
2023-03-11T19:12:56.068Z,5.93
2023-03-11T19:15:31.117Z,5.50
2023-03-11T19:18:07.000Z,5.50
2023-03-11T19:20:42.369Z,6.50
2023-03-11T19:23:14.436Z,6.00
2023-03-11T19:26:00.710Z,6.20
2023-03-11T19:28:35.523Z,6.60
2023-03-11T19:31:07.765Z,6.10
2023-03-11T19:33:40.008Z,6.70
2023-03-11T19:36:12.528Z,5.60
2023-03-11T19:38:44.547Z,5.20
2023-03-11T19:41:19.782Z,5.47
2023-03-11T19:43:52.450Z,5.60
2023-03-11T19:46:24.672Z,6.97
2023-03-11T19:48:56.941Z,5.30
2023-03-11T19:51:38.808Z,5.88
2023-03-11T19:54:16.580Z,5.15
2023-03-11T19:56:49.251Z,5.85
2023-03-11T19:59:21.774Z,6.10
2023-03-11T20:01:53.792Z,6.13
2023-03-11T20:04:26.030Z,5.15
2023-03-11T20:06:58.103Z,6.05
2023-03-11T20:09:34.238Z,6.15
2023-03-11T20:12:06.874Z,6.40
2023-03-11T20:14:41.734Z,6.55
2023-03-11T20:17:17.018Z,6.82
2023-03-11T20:19:51.167Z,6.18
2023-03-11T20:22:26.247Z,7.15
2023-03-11T20:24:58.383Z,5.80
2023-03-11T20:27:30.630Z,5.13
2023-03-11T20:30:02.902Z,5.13
2023-03-11T20:32:35.048Z,5.30
2023-03-11T20:35:07.929Z,6.13
2023-03-11T20:37:40.047Z,5.18
2023-03-11T20:40:15.632Z,5.40
2023-03-11T20:42:47.831Z,5.25
2023-03-11T20:45:22.068Z,5.00
2023-03-11T20:47:55.826Z,5.35
2023-03-11T20:50:27.982Z,3.97
2023-03-11T20:52:59.976Z,5.15
2023-03-11T20:55:32.191Z,4.82
2023-03-11T20:58:04.299Z,5.70
2023-03-11T21:00:36.687Z,4.80
2023-03-11T21:03:09.115Z,4.38
2023-03-11T21:05:41.463Z,5.80
2023-03-11T21:08:15.390Z,4.88
2023-03-11T21:10:47.550Z,5.78
2023-03-11T21:13:19.612Z,5.18
2023-03-11T21:15:55.267Z,4.90
2023-03-11T21:18:27.426Z,5.38
2023-03-11T21:20:59.466Z,6.18
2023-03-11T21:23:31.563Z,5.45
2023-03-11T21:26:05.289Z,4.28
2023-03-11T21:28:40.210Z,4.03
2023-03-11T21:31:17.279Z,4.63
2023-03-11T21:33:59.256Z,4.40
2023-03-11T21:36:33.369Z,4.47
2023-03-11T21:39:07.033Z,4.30
2023-03-11T21:41:40.134Z,4.07
2023-03-11T21:44:14.222Z,4.82
2023-03-11T21:46:46.419Z,5.00
2023-03-11T21:49:18.497Z,4.15
2023-03-11T21:51:50.686Z,4.32
2023-03-11T21:54:22.823Z,4.50
2023-03-11T21:56:55.051Z,4.20
2023-03-11T21:59:27.091Z,4.03
2023-03-11T22:02:03.319Z,4.60
2023-03-11T22:04:35.635Z,4.65
2023-03-11T22:07:07.817Z,5.05
2023-03-11T22:09:39.800Z,4.57
2023-03-11T22:12:12.022Z,4.88
2023-03-11T22:14:44.063Z,4.40
2023-03-11T22:17:16.263Z,3.97
2023-03-11T22:19:50.187Z,3.63
2023-03-11T22:22:22.435Z,4.47
2023-03-11T22:24:54.588Z,4.70
2023-03-11T22:27:26.670Z,4.15
2023-03-11T22:29:58.765Z,4.15
2023-03-11T22:32:30.957Z,4.40
2023-03-11T22:35:03.090Z,4.45
2023-03-11T22:37:35.960Z,4.30
2023-03-11T22:42:57.368Z,4.20
2023-03-11T22:45:29.562Z,3.92
2023-03-11T22:48:01.690Z,4.05
2023-03-11T22:50:33.869Z,3.80
2023-03-11T22:53:05.914Z,4.78
2023-03-11T22:55:42.810Z,4.80
2023-03-11T22:58:15.064Z,4.03
2023-03-11T23:00:47.496Z,4.60
2023-03-11T23:03:19.794Z,4.68
2023-03-11T23:05:51.779Z,4.72
2023-03-11T23:09:05.359Z,4.53
2023-03-11T23:11:37.317Z,4.25
2023-03-11T23:14:43.977Z,4.25
2023-03-11T23:17:22.944Z,4.07
2023-03-11T23:19:54.936Z,4.38
2023-03-11T23:22:27.201Z,4.03
2023-03-11T23:25:02.990Z,4.30
2023-03-11T23:27:35.685Z,3.58
2023-03-11T23:30:10.023Z,3.78
2023-03-11T23:32:45.531Z,4.10
2023-03-11T23:35:17.886Z,4.60
2023-03-11T23:37:51.274Z,4.22
2023-03-11T23:40:23.547Z,4.50
2023-03-11T23:42:55.656Z,4.78
2023-03-11T23:45:33.707Z,3.83
2023-03-11T23:48:05.869Z,5.00
2023-03-11T23:50:38.075Z,4.28
2023-03-11T23:53:10.067Z,4.13
2023-03-11T23:55:42.128Z,4.57
2023-03-11T23:58:14.197Z,4.43
